createdAt,value
2023-07-05T00:00:48.336Z,43.19
2023-07-05T00:03:15.664Z,43.49
2023-07-05T00:05:42.453Z,42.99
2023-07-05T00:08:09.271Z,43.02
2023-07-05T00:10:37.238Z,43.69
2023-07-05T00:13:04.068Z,43.82
2023-07-05T00:15:32.081Z,43.62
2023-07-05T00:18:00.421Z,43.48
2023-07-05T00:20:27.720Z,43.64
2023-07-05T00:22:54.637Z,43.50
2023-07-05T00:25:21.756Z,43.30
2023-07-05T00:27:49.544Z,43.53
2023-07-05T00:30:17.906Z,43.42
2023-07-05T00:32:44.883Z,43.54
2023-07-05T00:35:11.943Z,43.69
2023-07-05T00:37:38.738Z,43.56
2023-07-05T00:40:06.279Z,43.91
2023-07-05T00:42:33.032Z,43.33
2023-07-05T00:45:12.416Z,43.89
2023-07-05T00:47:43.171Z,43.88
2023-07-05T00:50:21.809Z,43.51
2023-07-05T00:52:48.964Z,43.50
2023-07-05T00:55:17.904Z,43.48
2023-07-05T00:57:46.072Z,43.83
2023-07-05T01:00:18.745Z,43.59
2023-07-05T01:02:51.016Z,43.77
2023-07-05T01:05:19.102Z,43.86
2023-07-05T01:07:47.362Z,43.79
2023-07-05T01:10:27.297Z,43.43
2023-07-05T01:13:13.655Z,43.95
2023-07-05T01:15:44.986Z,44.08
2023-07-05T01:18:23.814Z,44.24
2023-07-05T01:21:06.425Z,44.27
2023-07-05T01:24:00.814Z,43.54
2023-07-05T01:26:59.529Z,44.02
2023-07-05T01:29:56.863Z,44.00
2023-07-05T01:32:52.694Z,43.69
2023-07-05T01:35:28.906Z,43.75
2023-07-05T01:37:56.801Z,44.45
2023-07-05T01:40:23.499Z,44.11
2023-07-05T01:42:55.277Z,44.67
2023-07-05T01:45:41.219Z,44.60
2023-07-05T01:48:16.600Z,44.20
2023-07-05T01:50:51.223Z,44.70
2023-07-05T01:53:28.625Z,44.20
2023-07-05T01:56:06.713Z,44.47
2023-07-05T01:58:41.778Z,44.41
2023-07-05T02:01:10.520Z,44.21
2023-07-05T02:03:40.012Z,44.53
2023-07-05T02:06:09.028Z,45.04
2023-07-05T02:08:40.594Z,44.56
2023-07-05T02:11:07.409Z,45.08
2023-07-05T02:13:34.208Z,44.49
2023-07-05T02:16:01.116Z,44.36
2023-07-05T02:18:30.705Z,44.84
2023-07-05T02:20:58.299Z,44.38
2023-07-05T02:23:25.294Z,44.54
2023-07-05T02:25:53.430Z,44.82
2023-07-05T02:28:20.685Z,45.04
2023-07-05T02:30:47.486Z,45.16
2023-07-05T02:33:14.272Z,45.38
2023-07-05T02:35:41.235Z,44.79
2023-07-05T02:38:08.342Z,44.61
2023-07-05T02:40:35.140Z,44.95
2023-07-05T02:43:02.078Z,44.74
2023-07-05T02:45:28.926Z,45.37
2023-07-05T02:47:56.380Z,45.07
2023-07-05T02:50:23.287Z,44.92
2023-07-05T02:52:50.444Z,45.64
2023-07-05T02:55:17.502Z,45.66
2023-07-05T02:57:44.257Z,45.17
2023-07-05T03:00:11.703Z,45.74
2023-07-05T03:02:38.579Z,45.20
2023-07-05T03:05:10.340Z,45.35
2023-07-05T03:07:37.672Z,45.29
2023-07-05T03:10:05.643Z,45.08
2023-07-05T03:12:32.416Z,45.13
2023-07-05T03:14:59.766Z,45.55
2023-07-05T03:17:26.592Z,45.80
2023-07-05T03:19:55.549Z,45.31
2023-07-05T03:22:22.312Z,45.15
2023-07-05T03:24:52.392Z,45.65
2023-07-05T03:27:19.237Z,45.64
2023-07-05T03:29:46.195Z,45.91
2023-07-05T03:32:12.949Z,45.68
2023-07-05T03:34:39.700Z,45.83
2023-07-05T03:37:06.812Z,45.54
2023-07-05T03:39:33.646Z,45.21
2023-07-05T03:42:03.553Z,45.25
2023-07-05T03:44:30.536Z,45.84
2023-07-05T03:46:57.443Z,45.35
2023-07-05T03:49:24.240Z,45.98
2023-07-05T03:51:51.048Z,45.33
2023-07-05T03:54:17.818Z,45.99
2023-07-05T03:56:45.694Z,45.94
2023-07-05T03:59:12.930Z,45.75
2023-07-05T04:01:39.779Z,45.32
2023-07-05T04:04:06.675Z,45.31
2023-07-05T04:06:34.675Z,45.42
2023-07-05T04:09:03.285Z,45.48
2023-07-05T04:11:31.423Z,45.57
2023-07-05T04:13:58.615Z,46.25
2023-07-05T04:16:27.064Z,45.79
2023-07-05T04:18:56.096Z,45.55
2023-07-05T04:21:24.911Z,46.04
2023-07-05T04:23:51.939Z,45.54
2023-07-05T04:26:24.745Z,46.02
2023-07-05T04:28:51.942Z,46.53
2023-07-05T04:31:25.730Z,46.52
2023-07-05T04:33:52.549Z,47.14
2023-07-05T04:38:49.508Z,47.75
2023-07-05T04:41:16.312Z,48.54
2023-07-05T04:43:51.067Z,48.38
2023-07-05T04:46:18.115Z,48.82
2023-07-05T04:48:45.880Z,49.61
2023-07-05T04:51:12.895Z,49.50
2023-07-05T04:53:39.644Z,48.81
2023-07-05T04:56:06.439Z,49.60
2023-07-05T04:58:33.274Z,48.86
2023-07-05T05:01:05.750Z,48.91
2023-07-05T05:03:33.471Z,49.37
2023-07-05T05:06:00.692Z,49.92
2023-07-05T05:08:30.741Z,50.11
2023-07-05T05:11:00.855Z,50.13
2023-07-05T05:13:29.655Z,50.61
2023-07-05T05:15:57.576Z,50.80
2023-07-05T05:18:26.242Z,51.20
2023-07-05T05:20:53.168Z,51.52
2023-07-05T05:23:20.462Z,51.38
2023-07-05T05:25:48.784Z,51.22
2023-07-05T05:28:16.381Z,51.55
2023-07-05T05:30:45.462Z,50.81
2023-07-05T05:33:14.705Z,51.33
2023-07-05T05:35:52.694Z,51.06
2023-07-05T05:38:21.034Z,51.18
2023-07-05T05:40:52.259Z,51.16
2023-07-05T05:43:20.711Z,50.85
2023-07-05T05:45:47.585Z,50.33
2023-07-05T05:48:14.354Z,50.32
2023-07-05T05:50:41.090Z,50.09
2023-07-05T05:53:08.034Z,50.20
2023-07-05T05:55:35.527Z,49.72
2023-07-05T05:58:02.523Z,49.52
2023-07-05T06:00:29.962Z,49.26
2023-07-05T06:02:58.792Z,49.53
2023-07-05T06:05:25.826Z,49.37
2023-07-05T06:07:54.352Z,49.00
2023-07-05T06:10:23.435Z,49.12
2023-07-05T06:12:50.303Z,49.52
2023-07-05T06:15:17.516Z,49.38
2023-07-05T06:17:44.570Z,49.23
2023-07-05T06:20:13.000Z,49.46
2023-07-05T06:22:40.601Z,49.44
2023-07-05T06:25:08.330Z,49.62
2023-07-05T06:27:35.365Z,49.50
2023-07-05T06:30:02.367Z,49.20
2023-07-05T06:32:29.202Z,48.85
2023-07-05T06:34:56.105Z,48.73
2023-07-05T06:37:23.047Z,49.04
2023-07-05T06:39:49.829Z,48.72
2023-07-05T06:42:17.745Z,49.23
2023-07-05T06:44:44.719Z,49.05
2023-07-05T06:47:11.454Z,48.72
2023-07-05T06:49:38.837Z,48.42
2023-07-05T06:52:07.493Z,48.45
2023-07-05T06:54:34.276Z,48.69
2023-07-05T06:57:02.146Z,48.21
2023-07-05T06:59:28.898Z,48.33
2023-07-05T07:01:55.762Z,48.75
2023-07-05T07:04:23.217Z,48.69
2023-07-05T07:06:50.176Z,48.59
2023-07-05T07:09:16.951Z,48.19
2023-07-05T07:11:43.742Z,48.24
2023-07-05T07:14:10.584Z,48.34
2023-07-05T07:16:37.379Z,48.33
2023-07-05T07:19:04.413Z,50.26
2023-07-05T07:21:31.637Z,50.16
2023-07-05T07:23:58.450Z,49.28
2023-07-05T07:26:26.113Z,48.28
2023-07-05T07:28:56.810Z,48.75
2023-07-05T07:31:29.319Z,48.00
2023-07-05T07:34:02.555Z,48.41
2023-07-05T07:36:32.017Z,47.80
2023-07-05T07:38:59.743Z,48.44
2023-07-05T07:41:32.024Z,48.06
2023-07-05T07:44:10.338Z,49.01
2023-07-05T07:46:39.715Z,49.10
2023-07-05T07:49:08.484Z,49.37
2023-07-05T07:51:40.055Z,48.57
2023-07-05T07:54:10.414Z,48.78
2023-07-05T07:56:37.392Z,49.46
2023-07-05T07:59:08.699Z,50.03
2023-07-05T08:01:39.451Z,49.08
2023-07-05T08:04:08.565Z,49.60
2023-07-05T08:06:42.447Z,48.72
2023-07-05T08:09:19.147Z,48.62
2023-07-05T08:11:46.349Z,48.76
2023-07-05T08:14:18.519Z,49.54
2023-07-05T08:16:45.991Z,48.42
2023-07-05T08:19:13.101Z,49.88
2023-07-05T08:21:39.966Z,49.36
2023-07-05T08:24:26.580Z,50.48
2023-07-05T08:26:58.723Z,49.18
2023-07-05T08:29:26.869Z,50.45
2023-07-05T08:31:54.084Z,50.84
2023-07-05T08:34:21.066Z,50.99
2023-07-05T08:36:48.219Z,50.61
2023-07-05T08:39:15.414Z,51.43
2023-07-05T08:41:49.077Z,51.08
2023-07-05T08:44:26.113Z,50.99
2023-07-05T08:47:03.714Z,51.17
2023-07-05T08:49:34.646Z,51.67
2023-07-05T08:52:02.689Z,51.57
2023-07-05T08:54:34.592Z,51.36
2023-07-05T08:57:22.842Z,52.25
2023-07-05T08:59:58.651Z,52.60
2023-07-05T09:02:25.651Z,52.38
2023-07-05T09:04:54.514Z,52.18
2023-07-05T09:07:45.442Z,52.74
2023-07-05T09:10:40.489Z,52.94
2023-07-05T09:13:10.754Z,51.57
2023-07-05T09:15:43.010Z,52.37
2023-07-05T09:18:32.710Z,51.25
2023-07-05T09:21:20.121Z,52.23
2023-07-05T09:23:55.999Z,52.33
2023-07-05T09:26:53.130Z,53.50
2023-07-05T09:29:58.566Z,52.88
2023-07-05T09:32:42.439Z,52.11
2023-07-05T09:35:32.266Z,52.85
2023-07-05T09:38:02.004Z,51.90
2023-07-05T09:40:32.269Z,52.16
2023-07-05T09:43:30.104Z,52.05
2023-07-05T09:46:07.081Z,51.08
2023-07-05T09:48:48.636Z,50.97
2023-07-05T09:51:15.508Z,51.17
2023-07-05T09:53:56.933Z,51.38
2023-07-05T09:56:32.179Z,50.85
2023-07-05T09:59:21.373Z,50.65
2023-07-05T10:02:03.119Z,50.42
2023-07-05T10:04:30.867Z,50.39
2023-07-05T10:07:08.271Z,49.87
2023-07-05T10:09:37.087Z,49.79
2023-07-05T10:12:11.372Z,49.27
2023-07-05T10:14:39.056Z,49.94
2023-07-05T10:17:09.331Z,49.34
2023-07-05T10:19:51.077Z,49.54
2023-07-05T10:22:34.013Z,49.52
2023-07-05T10:25:17.474Z,48.98
2023-07-05T10:27:48.311Z,49.61
2023-07-05T10:30:18.718Z,49.52
2023-07-05T10:33:13.290Z,50.13
2023-07-05T10:36:06.165Z,50.45
2023-07-05T10:38:47.057Z,50.11
2023-07-05T10:41:30.319Z,50.40
2023-07-05T10:44:03.807Z,50.52
2023-07-05T10:46:32.067Z,51.11
2023-07-05T10:49:01.209Z,50.35
2023-07-05T10:51:34.911Z,50.52
2023-07-05T10:54:10.645Z,49.80
2023-07-05T10:56:44.116Z,50.35
2023-07-05T10:59:28.736Z,51.03
2023-07-05T11:02:02.876Z,50.20
2023-07-05T11:04:33.238Z,50.82
2023-07-05T11:07:12.617Z,51.08
2023-07-05T11:09:40.336Z,51.00
2023-07-05T11:12:22.494Z,51.24
2023-07-05T11:14:57.777Z,51.62
2023-07-05T11:17:40.208Z,51.39
2023-07-05T11:20:36.728Z,50.69
2023-07-05T11:23:04.111Z,50.73
2023-07-05T11:25:59.797Z,50.27
2023-07-05T11:28:40.930Z,50.97
2023-07-05T11:31:28.882Z,50.75
2023-07-05T11:34:26.661Z,50.54
2023-07-05T11:36:54.348Z,51.10
2023-07-05T11:39:37.783Z,50.72
2023-07-05T11:42:13.918Z,51.63
2023-07-05T11:44:47.642Z,50.86
2023-07-05T11:47:22.536Z,50.71
2023-07-05T11:50:10.638Z,50.30
2023-07-05T11:53:02.468Z,51.17
2023-07-05T11:55:35.097Z,51.15
2023-07-05T11:58:09.361Z,50.93
2023-07-05T12:01:05.848Z,51.55
2023-07-05T12:03:40.016Z,51.14
2023-07-05T12:06:14.824Z,50.76
2023-07-05T12:08:48.008Z,51.11
2023-07-05T12:11:15.788Z,52.13
2023-07-05T12:13:43.449Z,51.74
2023-07-05T12:16:17.236Z,51.07
2023-07-05T12:18:44.249Z,52.16
2023-07-05T12:21:13.797Z,51.48
2023-07-05T12:23:41.221Z,51.95
2023-07-05T12:26:23.537Z,52.11
2023-07-05T12:28:50.375Z,51.75
2023-07-05T12:31:21.623Z,51.78
2023-07-05T12:33:56.703Z,51.24
2023-07-05T12:36:24.367Z,51.51
2023-07-05T12:39:05.693Z,51.84
2023-07-05T12:41:32.456Z,50.99
2023-07-05T12:44:04.599Z,51.65
2023-07-05T12:46:33.891Z,51.56
2023-07-05T12:49:19.964Z,51.19
2023-07-05T12:51:53.181Z,51.00
2023-07-05T12:54:20.060Z,51.69
2023-07-05T12:56:48.440Z,50.87
2023-07-05T12:59:35.024Z,50.12
2023-07-05T13:02:06.949Z,49.49
2023-07-05T13:04:37.239Z,49.49
2023-07-05T13:07:06.673Z,49.37
2023-07-05T13:09:36.619Z,48.65
2023-07-05T13:12:06.832Z,48.39
2023-07-05T13:14:37.927Z,48.66
2023-07-05T13:17:27.925Z,48.40
2023-07-05T13:20:14.332Z,48.32
2023-07-05T13:22:48.986Z,47.72
2023-07-05T13:25:34.995Z,47.62
2023-07-05T13:28:04.190Z,48.18
2023-07-05T13:30:31.293Z,48.03
2023-07-05T13:33:01.029Z,47.98
2023-07-05T13:35:33.084Z,47.83
2023-07-05T13:38:01.370Z,48.17
2023-07-05T13:40:31.061Z,47.75
2023-07-05T13:42:58.937Z,47.63
2023-07-05T13:45:34.231Z,47.85
2023-07-05T13:48:02.327Z,47.79
2023-07-05T13:50:32.779Z,47.79
2023-07-05T13:53:00.018Z,47.17
2023-07-05T13:55:26.851Z,47.79
2023-07-05T13:58:03.416Z,47.30
2023-07-05T14:00:33.401Z,46.96
2023-07-05T14:03:02.322Z,47.03
2023-07-05T14:05:30.525Z,46.93
2023-07-05T14:07:59.681Z,46.33
2023-07-05T14:10:29.688Z,46.43
2023-07-05T14:12:56.818Z,46.62
2023-07-05T14:15:35.637Z,46.49
2023-07-05T14:18:02.963Z,46.16
2023-07-05T14:20:35.935Z,45.87
2023-07-05T14:23:09.498Z,46.31
2023-07-05T14:25:45.731Z,46.58
2023-07-05T14:28:13.916Z,46.20
2023-07-05T14:30:42.520Z,45.67
2023-07-05T14:33:15.814Z,45.52
2023-07-05T14:35:42.921Z,45.54
2023-07-05T14:38:10.275Z,45.96
2023-07-05T14:40:38.713Z,44.97
2023-07-05T14:43:06.186Z,45.64
2023-07-05T14:45:35.702Z,44.74
2023-07-05T14:48:03.738Z,45.49
2023-07-05T14:50:32.442Z,44.99
2023-07-05T14:53:03.506Z,45.26
2023-07-05T14:55:31.588Z,45.45
2023-07-05T14:57:58.917Z,45.36
2023-07-05T15:00:28.942Z,45.36
2023-07-05T15:03:08.133Z,44.42
2023-07-05T15:05:35.294Z,44.96
2023-07-05T15:08:04.324Z,43.99
2023-07-05T15:10:33.257Z,44.38
2023-07-05T15:13:00.881Z,43.80
2023-07-05T15:15:37.027Z,44.85
2023-07-05T15:18:05.196Z,44.38
2023-07-05T15:20:34.206Z,43.93
2023-07-05T15:23:01.002Z,43.87
2023-07-05T15:25:28.054Z,44.18
2023-07-05T15:27:55.062Z,44.39
2023-07-05T15:30:23.254Z,44.21
2023-07-05T15:32:51.065Z,44.19
2023-07-05T15:35:20.444Z,43.25
2023-07-05T15:37:48.253Z,43.54
2023-07-05T15:40:20.129Z,43.69
2023-07-05T15:42:50.981Z,43.20
2023-07-05T15:45:19.158Z,43.00
2023-07-05T15:47:48.896Z,43.21
2023-07-05T15:50:18.416Z,43.48
2023-07-05T15:52:46.315Z,43.34
2023-07-05T15:55:14.145Z,43.62
2023-07-05T15:57:42.562Z,43.14
2023-07-05T16:00:19.313Z,42.99
2023-07-05T16:02:50.372Z,42.41
2023-07-05T16:05:17.873Z,42.99
2023-07-05T16:07:44.898Z,43.93
2023-07-05T16:10:13.054Z,41.40
2023-07-05T16:12:39.929Z,42.41
2023-07-05T16:15:07.871Z,40.68
2023-07-05T16:17:35.346Z,41.30
2023-07-05T16:20:02.384Z,41.38
2023-07-05T16:22:29.231Z,41.33
2023-07-05T16:24:56.260Z,40.54
2023-07-05T16:27:24.180Z,41.38
2023-07-05T16:29:51.827Z,40.37
2023-07-05T16:32:18.702Z,41.52
2023-07-05T16:34:46.035Z,41.99
2023-07-05T16:37:13.073Z,41.25
2023-07-05T16:39:39.818Z,41.96
2023-07-05T16:42:07.096Z,41.35
2023-07-05T16:44:33.861Z,41.03
2023-07-05T16:47:03.470Z,40.58
2023-07-05T16:49:30.271Z,41.16
2023-07-05T16:51:59.860Z,40.80
2023-07-05T16:54:26.721Z,40.88
2023-07-05T16:56:53.716Z,41.20
2023-07-05T16:59:20.872Z,40.50
2023-07-05T17:01:47.954Z,40.12
2023-07-05T17:04:14.913Z,40.23
2023-07-05T17:06:42.866Z,40.44
2023-07-05T17:09:09.891Z,40.62
2023-07-05T17:11:36.673Z,40.77
2023-07-05T17:14:03.795Z,41.01
2023-07-05T17:16:30.728Z,40.99
2023-07-05T17:18:57.486Z,40.97
2023-07-05T17:21:24.308Z,40.12
2023-07-05T17:23:51.029Z,40.85
2023-07-05T17:26:17.997Z,40.53
2023-07-05T17:28:46.809Z,40.92
2023-07-05T17:31:24.447Z,40.40
2023-07-05T17:33:54.229Z,40.96
2023-07-05T17:36:22.995Z,40.65
2023-07-05T17:38:50.989Z,41.05
2023-07-05T17:41:19.204Z,40.75
2023-07-05T17:43:47.438Z,40.09
2023-07-05T17:46:28.218Z,41.11
2023-07-05T17:48:58.531Z,41.16
2023-07-05T17:51:27.195Z,40.28
2023-07-05T17:53:54.969Z,40.93
2023-07-05T17:56:26.072Z,40.85
2023-07-05T17:58:55.830Z,41.26
2023-07-05T18:01:25.993Z,40.27
2023-07-05T18:03:53.137Z,41.07
2023-07-05T18:06:20.091Z,40.24
2023-07-05T18:08:50.160Z,40.38
2023-07-05T18:11:17.783Z,40.58
2023-07-05T18:13:45.007Z,40.14
2023-07-05T18:16:17.432Z,40.09
2023-07-05T18:18:45.055Z,39.78
2023-07-05T18:21:13.558Z,40.00
2023-07-05T18:23:40.711Z,39.22
2023-07-05T18:26:11.885Z,39.50
2023-07-05T18:28:38.728Z,40.14
2023-07-05T18:31:06.330Z,38.80
2023-07-05T18:33:35.028Z,39.47
2023-07-05T18:36:02.938Z,38.51
2023-07-05T18:38:31.462Z,38.13
2023-07-05T18:41:00.012Z,37.50
2023-07-05T18:43:27.015Z,39.45
2023-07-05T18:45:59.603Z,38.52
2023-07-05T18:48:27.684Z,38.13
2023-07-05T18:50:56.743Z,38.54
2023-07-05T18:53:25.872Z,38.68
2023-07-05T18:56:03.451Z,38.86
2023-07-05T18:58:31.347Z,38.56
2023-07-05T19:01:04.055Z,38.93
2023-07-05T19:03:31.391Z,38.86
2023-07-05T19:06:06.555Z,39.22
2023-07-05T19:08:35.112Z,38.77
2023-07-05T19:11:04.911Z,38.72
2023-07-05T19:13:32.304Z,38.68
2023-07-05T19:16:00.320Z,38.99
2023-07-05T19:18:27.529Z,39.47
2023-07-05T19:20:55.951Z,39.73
2023-07-05T19:23:23.224Z,38.88
2023-07-05T19:25:50.094Z,38.77
2023-07-05T19:28:16.983Z,38.69
2023-07-05T19:30:43.836Z,38.56
2023-07-05T19:33:10.752Z,38.55
2023-07-05T19:35:42.214Z,37.94
2023-07-05T19:38:10.721Z,38.19
2023-07-05T19:40:38.145Z,38.56
2023-07-05T19:43:05.069Z,38.41
2023-07-05T19:45:34.926Z,38.52
2023-07-05T19:48:02.432Z,39.32
2023-07-05T19:50:29.712Z,38.23
2023-07-05T19:52:59.947Z,37.85
2023-07-05T19:55:26.814Z,37.70
2023-07-05T19:57:53.666Z,38.17
2023-07-05T20:00:20.514Z,37.80
2023-07-05T20:02:47.438Z,37.63
2023-07-05T20:05:14.437Z,37.50
2023-07-05T20:07:41.528Z,38.05
2023-07-05T20:10:08.978Z,38.13
2023-07-05T20:12:36.554Z,37.69
2023-07-05T20:15:03.409Z,38.27
2023-07-05T20:17:30.237Z,38.81
2023-07-05T20:19:57.201Z,38.91
2023-07-05T20:22:23.987Z,39.03
2023-07-05T20:24:51.286Z,38.49
2023-07-05T20:27:18.076Z,38.67
2023-07-05T20:29:44.925Z,38.46
2023-07-05T20:32:12.313Z,38.54
2023-07-05T20:34:40.120Z,39.03
2023-07-05T20:37:07.532Z,38.56
2023-07-05T20:39:34.326Z,38.80
2023-07-05T20:42:01.211Z,38.92
2023-07-05T20:44:28.236Z,38.42
2023-07-05T20:46:57.921Z,38.13
2023-07-05T20:49:27.629Z,38.12
2023-07-05T20:51:54.448Z,37.96
2023-07-05T20:54:22.396Z,38.07
2023-07-05T20:56:49.902Z,38.66
2023-07-05T20:59:16.996Z,38.12
2023-07-05T21:01:46.517Z,38.69
2023-07-05T21:04:13.586Z,39.00
2023-07-05T21:06:40.423Z,38.47
2023-07-05T21:09:07.368Z,38.72
2023-07-05T21:11:34.286Z,38.71
2023-07-05T21:14:01.177Z,39.37
2023-07-05T21:16:28.230Z,38.90
2023-07-05T21:18:55.123Z,39.31
2023-07-05T21:21:22.189Z,39.18
2023-07-05T21:23:48.955Z,39.41
2023-07-05T21:26:15.731Z,39.80
2023-07-05T21:28:44.894Z,39.00
2023-07-05T21:31:12.238Z,39.00
2023-07-05T21:33:38.997Z,39.88
2023-07-05T21:36:06.466Z,39.70
2023-07-05T21:38:33.223Z,39.02
2023-07-05T21:41:01.624Z,39.08
2023-07-05T21:43:30.592Z,39.08
2023-07-05T21:45:58.038Z,39.32
2023-07-05T21:48:30.330Z,39.19
2023-07-05T21:50:58.955Z,39.38
2023-07-05T21:53:26.051Z,39.62
2023-07-05T21:55:57.755Z,39.87
2023-07-05T21:58:26.217Z,39.98
2023-07-05T22:00:53.755Z,39.83
2023-07-05T22:03:20.757Z,39.68
2023-07-05T22:05:55.490Z,39.48
2023-07-05T22:08:24.524Z,39.85
2023-07-05T22:10:54.539Z,39.81
2023-07-05T22:13:22.557Z,39.75
2023-07-05T22:15:49.861Z,39.82
2023-07-05T22:18:18.966Z,40.19
2023-07-05T22:20:48.090Z,39.71
2023-07-05T22:23:15.070Z,40.05
2023-07-05T22:25:42.990Z,39.84
2023-07-05T22:28:09.764Z,40.62
2023-07-05T22:30:37.310Z,40.33
2023-07-05T22:33:04.300Z,40.30
2023-07-05T22:35:35.116Z,40.32
2023-07-05T22:38:02.394Z,40.58
2023-07-05T22:40:30.843Z,41.60
2023-07-05T22:42:57.937Z,40.98
2023-07-05T22:45:26.601Z,41.28
2023-07-05T22:47:54.150Z,41.19
2023-07-05T22:50:21.097Z,41.20
2023-07-05T22:52:48.018Z,41.49
2023-07-05T22:55:16.958Z,41.94
2023-07-05T22:57:44.346Z,41.40
2023-07-05T23:00:17.990Z,42.21
2023-07-05T23:02:45.982Z,42.22
2023-07-05T23:05:13.144Z,41.43
2023-07-05T23:07:39.918Z,42.03
2023-07-05T23:10:07.472Z,41.66
2023-07-05T23:12:34.208Z,41.83
2023-07-05T23:15:00.983Z,41.82
2023-07-05T23:17:27.772Z,41.84
2023-07-05T23:19:54.873Z,42.46
2023-07-05T23:22:21.586Z,42.30
2023-07-05T23:24:48.735Z,42.10
2023-07-05T23:27:15.513Z,42.48
2023-07-05T23:29:42.312Z,42.33
2023-07-05T23:32:14.795Z,41.62
2023-07-05T23:34:41.624Z,41.87
2023-07-05T23:37:08.406Z,42.16
2023-07-05T23:39:36.949Z,42.50
2023-07-05T23:42:04.576Z,42.31
2023-07-05T23:44:31.722Z,42.05
2023-07-05T23:46:58.609Z,42.67
2023-07-05T23:49:25.381Z,42.45
2023-07-05T23:51:54.183Z,42.34
2023-07-05T23:54:23.516Z,42.81
2023-07-05T23:56:52.244Z,42.39
2023-07-05T23:59:21.952Z,42.72
